createdAt,value
2022-12-03T00:01:49.424Z,29.98
2022-12-03T00:04:27.948Z,28.00
2022-12-03T00:06:59.841Z,23.13
2022-12-03T00:09:31.967Z,34.95
2022-12-03T00:12:01.446Z,34.55
2022-12-03T00:14:44.847Z,34.35
2022-12-03T00:17:11.897Z,35.75
2022-12-03T00:19:54.337Z,33.47
2022-12-03T00:22:21.341Z,34.10
2022-12-03T00:25:27.885Z,28.15
2022-12-03T00:27:58.604Z,34.42
2022-12-03T00:30:27.949Z,33.80
2022-12-03T00:33:00.878Z,30.57
2022-12-03T00:35:39.113Z,32.22
2022-12-03T00:38:13.259Z,34.95
2022-12-03T00:40:40.870Z,18.60
2022-12-03T00:52:10.613Z,34.33
2022-12-03T00:54:43.553Z,29.65
2022-12-03T00:57:15.703Z,40.40
2022-12-03T00:59:51.115Z,27.37
2022-12-03T01:02:24.329Z,28.85
2022-12-03T01:04:57.472Z,25.35
2022-12-03T01:07:27.859Z,28.60
2022-12-03T01:10:02.280Z,37.05
2022-12-03T01:12:42.242Z,29.53
2022-12-03T01:15:09.673Z,29.65
2022-12-03T01:17:48.236Z,32.03
2022-12-03T01:20:26.992Z,34.35
2022-12-03T01:22:59.545Z,35.10
2022-12-03T01:31:38.038Z,33.83
2022-12-03T01:37:05.915Z,30.83
2022-12-03T01:39:42.099Z,31.50
2022-12-03T01:53:04.489Z,39.47
2022-12-03T01:55:38.287Z,39.78
2022-12-03T01:58:10.834Z,32.63
2022-12-03T02:00:52.122Z,35.63
2022-12-03T02:03:40.254Z,30.42
2022-12-03T02:06:40.445Z,31.60
2022-12-03T02:09:14.123Z,32.85
2022-12-03T02:11:52.346Z,34.88
2022-12-03T02:14:24.346Z,35.58
2022-12-03T02:16:56.163Z,34.85
2022-12-03T02:19:28.492Z,34.73
2022-12-03T02:22:37.056Z,32.65
2022-12-03T02:31:34.389Z,31.23
2022-12-03T02:38:17.077Z,25.55
2022-12-03T02:40:47.841Z,32.80
2022-12-03T02:43:51.457Z,39.35
2022-12-03T02:46:34.964Z,28.73
2022-12-03T02:49:05.810Z,33.05
2022-12-03T02:51:37.750Z,30.10
2022-12-03T02:54:05.126Z,32.23
2022-12-03T02:56:39.037Z,35.40
2022-12-03T02:59:05.990Z,35.95
2022-12-03T03:01:41.835Z,37.72
2022-12-03T03:04:17.750Z,31.58
2022-12-03T03:09:44.571Z,40.33
2022-12-03T03:12:11.736Z,34.10
2022-12-03T03:14:41.853Z,38.25
2022-12-03T03:17:47.295Z,34.40
2022-12-03T03:20:32.158Z,33.67
2022-12-03T03:23:34.421Z,32.67
2022-12-03T03:26:12.151Z,31.77
2022-12-03T03:32:06.243Z,21.75
2022-12-03T03:37:43.838Z,34.50
2022-12-03T03:40:21.569Z,33.20
2022-12-03T03:42:52.130Z,32.47
2022-12-03T03:45:29.540Z,33.75
2022-12-03T03:48:05.714Z,39.30
2022-12-03T03:50:41.309Z,31.50
2022-12-03T03:53:08.817Z,32.78
2022-12-03T03:55:53.528Z,36.17
2022-12-03T03:58:29.108Z,35.38
2022-12-03T04:00:58.804Z,35.10
2022-12-03T04:03:41.243Z,33.00
2022-12-03T04:06:19.813Z,35.78
2022-12-03T04:08:47.792Z,36.67
2022-12-03T04:11:24.584Z,39.75
2022-12-03T04:14:00.361Z,31.70
2022-12-03T04:16:41.595Z,31.23
2022-12-03T04:19:22.642Z,38.03
2022-12-03T04:22:02.022Z,30.52
2022-12-03T04:24:37.363Z,29.63
2022-12-03T04:27:12.453Z,36.40
2022-12-03T04:29:48.310Z,31.92
2022-12-03T04:32:26.858Z,33.40
2022-12-03T04:34:53.920Z,33.80
2022-12-03T04:37:24.634Z,32.05
2022-12-03T04:39:52.154Z,26.43
2022-12-03T04:42:32.399Z,36.47
2022-12-03T04:44:59.051Z,32.80
2022-12-03T04:47:48.036Z,41.13
2022-12-03T04:50:47.649Z,40.63
2022-12-03T04:53:28.115Z,29.80
2022-12-03T04:56:03.013Z,38.90
2022-12-03T04:58:29.774Z,41.90
2022-12-03T05:01:04.535Z,32.08
2022-12-03T05:03:43.998Z,32.65
2022-12-03T05:06:19.269Z,33.30
2022-12-03T05:08:45.947Z,36.15
2022-12-03T05:11:25.681Z,31.02
2022-12-03T05:14:05.119Z,29.15
2022-12-03T05:16:41.044Z,33.22
2022-12-03T05:19:18.870Z,35.43
2022-12-03T05:28:00.779Z,35.38
2022-12-03T05:31:10.436Z,34.45
2022-12-03T05:33:54.581Z,39.50
2022-12-03T05:36:21.305Z,38.60
2022-12-03T05:38:56.331Z,35.35
2022-12-03T05:41:31.091Z,36.05
2022-12-03T05:44:12.427Z,33.80
2022-12-03T05:46:42.106Z,37.10
2022-12-03T05:49:23.099Z,40.30
2022-12-03T05:51:59.037Z,32.53
2022-12-03T05:54:40.694Z,32.22
2022-12-03T05:57:15.502Z,31.02
2022-12-03T05:59:50.054Z,30.70
2022-12-03T06:02:22.770Z,26.55
2022-12-03T06:04:52.746Z,28.70
2022-12-03T06:07:31.885Z,38.05
2022-12-03T06:10:12.430Z,39.25
2022-12-03T06:12:41.358Z,36.73
2022-12-03T06:15:52.012Z,35.13
2022-12-03T06:18:53.415Z,37.25
2022-12-03T06:21:34.770Z,42.30
2022-12-03T06:24:22.772Z,37.35
2022-12-03T06:26:49.412Z,34.80
2022-12-03T06:29:26.007Z,40.90
2022-12-03T06:31:52.697Z,38.95
2022-12-03T06:34:19.428Z,45.13
2022-12-03T06:36:51.966Z,45.80
2022-12-03T06:39:30.270Z,49.20
2022-12-03T06:42:36.806Z,41.97
2022-12-03T06:50:31.636Z,42.78
2022-12-03T06:53:06.151Z,43.33
2022-12-03T06:55:42.181Z,36.30
2022-12-03T07:00:45.034Z,31.23
2022-12-03T07:03:17.401Z,41.75
2022-12-03T07:05:51.425Z,40.20
2022-12-03T07:08:18.302Z,34.35
2022-12-03T07:10:58.267Z,39.67
2022-12-03T07:13:34.384Z,40.40
2022-12-03T07:16:04.601Z,40.95
2022-12-03T07:18:42.979Z,36.67
2022-12-03T07:21:17.971Z,34.88
2022-12-03T07:23:50.401Z,37.72
2022-12-03T07:29:00.725Z,39.33
2022-12-03T07:31:27.703Z,32.47
2022-12-03T07:33:59.637Z,40.55
2022-12-03T07:36:41.718Z,37.17
2022-12-03T07:39:11.548Z,40.40
2022-12-03T07:44:36.943Z,41.80
2022-12-03T07:47:06.893Z,35.55
2022-12-03T07:49:41.239Z,40.08
2022-12-03T07:52:19.954Z,37.83
2022-12-03T07:54:55.431Z,26.70
2022-12-03T07:57:25.363Z,43.13
2022-12-03T07:59:57.530Z,34.72
2022-12-03T08:02:45.130Z,37.72
2022-12-03T08:10:34.743Z,33.07
2022-12-03T08:13:06.719Z,27.60
2022-12-03T08:15:45.625Z,23.52
2022-12-03T08:18:18.461Z,31.20
2022-12-03T08:20:50.766Z,31.20
2022-12-03T08:23:39.275Z,31.70
2022-12-03T08:26:29.054Z,40.25
2022-12-03T08:29:09.802Z,41.78
2022-12-03T08:31:53.849Z,35.22
2022-12-03T08:34:41.155Z,34.33
2022-12-03T08:37:29.975Z,33.27
2022-12-03T08:40:40.920Z,27.55
2022-12-03T08:43:26.040Z,40.90
2022-12-03T08:45:54.633Z,31.25
2022-12-03T08:51:00.528Z,35.50
2022-12-03T08:54:14.647Z,35.40
2022-12-03T09:00:00.330Z,34.13
2022-12-03T09:08:08.829Z,38.17
2022-12-03T09:11:27.300Z,27.90
2022-12-03T09:22:55.467Z,39.28
2022-12-03T09:39:59.170Z,43.35
2022-12-03T09:42:57.857Z,44.28
2022-12-03T10:22:24.984Z,43.25
2022-12-03T10:25:13.919Z,35.47
2022-12-03T10:31:03.290Z,48.37
2022-12-03T10:33:44.376Z,45.65
2022-12-03T10:36:15.292Z,40.88
2022-12-03T11:06:01.609Z,34.88
2022-12-03T11:08:38.153Z,39.35
2022-12-03T11:11:18.303Z,43.38
2022-12-03T11:22:44.975Z,40.45
2022-12-03T11:25:45.982Z,46.08
2022-12-03T11:28:31.067Z,43.83
2022-12-03T11:34:59.292Z,45.22
2022-12-03T11:37:26.905Z,51.33
2022-12-03T11:40:19.015Z,47.55
2022-12-03T11:46:55.833Z,50.83
2022-12-03T12:36:47.957Z,27.95
2022-12-03T12:39:18.433Z,29.92
2022-12-03T14:04:24.071Z,43.63
2022-12-03T14:17:51.558Z,49.42
2022-12-03T14:36:47.587Z,55.50
2022-12-03T14:39:16.847Z,49.57
2022-12-03T14:41:43.618Z,51.20
2022-12-03T14:44:10.341Z,47.20
2022-12-03T14:46:37.105Z,63.47
2022-12-03T14:49:03.827Z,64.22
2022-12-03T14:51:30.706Z,45.17
2022-12-03T14:53:57.403Z,45.35
2022-12-03T14:56:26.750Z,50.00
2022-12-03T14:58:53.712Z,57.47
2022-12-03T15:01:20.428Z,55.42
2022-12-03T15:03:47.225Z,50.07
2022-12-03T15:06:14.086Z,50.13
2022-12-03T15:08:40.932Z,46.13
2022-12-03T15:13:33.423Z,41.50
2022-12-03T15:16:00.278Z,41.65
2022-12-03T15:18:27.278Z,36.10
2022-12-03T15:20:54.147Z,36.38
2022-12-03T15:23:20.894Z,26.67
2022-12-03T15:25:47.692Z,41.13
2022-12-03T15:28:29.165Z,42.13
2022-12-03T15:30:56.325Z,42.03
2022-12-03T15:33:27.998Z,39.40
2022-12-03T15:35:55.183Z,35.97
2022-12-03T15:38:25.834Z,41.38
2022-12-03T15:43:46.044Z,37.80
2022-12-03T15:46:19.585Z,33.22
2022-12-03T15:51:43.981Z,39.83
2022-12-03T15:59:41.182Z,28.77
2022-12-03T16:02:08.136Z,36.20
2022-12-03T16:04:35.007Z,25.02
2022-12-03T16:07:01.800Z,32.80
2022-12-03T16:12:25.422Z,29.63
2022-12-03T16:15:37.886Z,35.70
2022-12-03T16:23:27.435Z,35.93
2022-12-03T16:34:47.223Z,29.83
2022-12-03T16:37:47.719Z,41.13
2022-12-03T16:40:28.718Z,47.65
2022-12-03T16:42:58.064Z,38.38
2022-12-03T16:45:28.420Z,40.33
2022-12-03T16:48:04.948Z,37.13
2022-12-03T16:50:43.615Z,38.77
2022-12-03T17:02:33.570Z,52.20
2022-12-03T17:05:06.812Z,48.97
2022-12-03T17:07:42.126Z,46.40
2022-12-03T17:10:12.120Z,56.85
2022-12-03T17:15:47.204Z,53.42
2022-12-03T17:18:28.090Z,56.83
2022-12-03T17:20:54.707Z,57.33
2022-12-03T17:26:19.564Z,56.60
2022-12-03T17:28:58.340Z,60.15
2022-12-03T17:31:39.992Z,53.57
2022-12-03T17:34:08.708Z,34.13
2022-12-03T17:36:39.980Z,59.58
2022-12-03T17:39:08.226Z,55.47
2022-12-03T17:41:47.102Z,48.92
2022-12-03T17:44:25.925Z,60.00
2022-12-03T17:49:57.530Z,52.42
2022-12-03T17:52:24.453Z,54.10
2022-12-03T17:57:38.017Z,52.30
2022-12-03T18:00:05.697Z,49.53
2022-12-03T18:02:32.512Z,48.20
2022-12-03T18:04:59.619Z,61.55
2022-12-03T18:07:27.785Z,48.22
2022-12-03T18:09:55.234Z,57.27
2022-12-03T18:12:23.460Z,55.17
2022-12-03T18:14:50.615Z,50.97
2022-12-03T18:17:17.412Z,49.53
2022-12-03T18:22:32.862Z,51.90
2022-12-03T18:24:59.732Z,51.50
2022-12-03T18:27:26.433Z,66.35
2022-12-03T18:29:53.477Z,54.58
2022-12-03T18:32:29.001Z,60.45
2022-12-03T18:34:57.275Z,51.87
2022-12-03T18:37:27.246Z,60.00
2022-12-03T18:42:35.888Z,64.57
2022-12-03T18:45:03.393Z,56.25
2022-12-03T18:47:30.115Z,62.53
2022-12-03T18:49:57.755Z,57.92
2022-12-03T18:55:00.401Z,57.92
2022-12-03T18:57:32.499Z,62.15
2022-12-03T19:00:04.660Z,66.07
2022-12-03T19:03:01.353Z,58.03
2022-12-03T19:05:20.063Z,61.30
2022-12-03T19:07:46.886Z,52.50
2022-12-03T19:10:13.737Z,53.47
2022-12-03T19:12:40.614Z,57.93
2022-12-03T19:15:13.572Z,52.08
2022-12-03T19:17:40.621Z,54.42
2022-12-03T19:20:10.627Z,64.15
2022-12-03T19:22:37.314Z,55.22
2022-12-03T19:25:04.742Z,58.50
2022-12-03T19:27:31.915Z,57.70
2022-12-03T19:30:00.086Z,68.97
2022-12-03T19:32:27.936Z,58.60
2022-12-03T19:34:55.684Z,58.45
2022-12-03T19:37:22.532Z,61.97
2022-12-03T19:39:53.415Z,46.30
2022-12-03T19:42:20.288Z,60.33
2022-12-03T19:44:50.634Z,43.28
2022-12-03T19:47:17.511Z,53.40
2022-12-03T19:49:44.696Z,52.33
2022-12-03T19:52:11.477Z,48.03
2022-12-03T19:54:45.668Z,58.33
2022-12-03T19:57:12.495Z,58.70
2022-12-03T19:59:39.135Z,51.50
2022-12-03T20:02:06.141Z,51.20
2022-12-03T20:04:33.219Z,53.45
2022-12-03T20:06:59.928Z,41.53
2022-12-03T20:09:26.583Z,49.92
2022-12-03T20:11:53.255Z,58.55
2022-12-03T20:14:20.254Z,54.53
2022-12-03T20:16:47.427Z,55.65
2022-12-03T20:19:16.938Z,51.20
2022-12-03T20:21:44.076Z,49.25
2022-12-03T20:24:15.213Z,51.00
2022-12-03T20:26:42.152Z,57.03
2022-12-03T20:29:09.036Z,48.55
2022-12-03T20:31:35.909Z,42.88
2022-12-03T20:34:04.702Z,49.50
2022-12-03T20:36:32.322Z,41.22
2022-12-03T20:39:08.820Z,55.67
2022-12-03T20:41:36.959Z,56.03
2022-12-03T20:46:50.055Z,50.45
2022-12-03T20:49:16.803Z,55.78
2022-12-03T20:51:43.469Z,52.10
2022-12-03T20:54:10.391Z,47.67
2022-12-03T20:56:38.041Z,52.22
2022-12-03T20:59:07.654Z,50.88
2022-12-03T21:01:37.420Z,52.85
2022-12-03T21:04:05.235Z,48.13
2022-12-03T21:06:32.888Z,51.72
2022-12-03T21:09:08.840Z,53.67
2022-12-03T21:11:37.304Z,46.72
2022-12-03T21:14:06.170Z,48.72
2022-12-03T21:19:23.099Z,50.78
2022-12-03T21:21:50.252Z,43.00
2022-12-03T21:24:17.120Z,50.58
2022-12-03T21:26:43.823Z,44.45
2022-12-03T21:29:10.646Z,37.77
2022-12-03T21:31:37.400Z,44.72
2022-12-03T21:34:04.089Z,49.35
2022-12-03T21:36:30.824Z,45.55
2022-12-03T21:38:57.536Z,47.47
2022-12-03T21:41:24.213Z,46.63
2022-12-03T21:43:50.817Z,51.10
2022-12-03T21:47:09.618Z,50.83
2022-12-03T21:49:04.451Z,47.47
2022-12-03T21:51:31.143Z,50.08
2022-12-03T21:53:57.835Z,44.77
2022-12-03T21:56:24.565Z,45.20
2022-12-03T21:58:51.317Z,43.35
2022-12-03T22:01:23.620Z,49.42
2022-12-03T22:03:50.834Z,47.38
2022-12-03T22:06:17.786Z,46.47
2022-12-03T22:08:45.111Z,46.08
2022-12-03T22:11:14.660Z,50.00
2022-12-03T22:13:42.066Z,49.88
2022-12-03T22:16:14.398Z,45.28
2022-12-03T22:18:42.015Z,53.53
2022-12-03T22:21:13.354Z,49.40
2022-12-03T22:23:40.638Z,52.30
2022-12-03T22:26:10.663Z,49.30
2022-12-03T22:28:37.361Z,41.08
2022-12-03T22:31:08.309Z,51.37
2022-12-03T22:33:36.077Z,50.22
2022-12-03T22:36:19.695Z,54.78
2022-12-03T22:38:48.080Z,55.33
2022-12-03T22:41:15.409Z,46.97
2022-12-03T22:43:42.123Z,49.57
2022-12-03T22:46:16.576Z,49.78
2022-12-03T22:48:52.064Z,47.20
2022-12-03T22:51:22.891Z,49.03
2022-12-03T23:01:01.276Z,49.00
2022-12-03T23:03:32.314Z,52.08
2022-12-03T23:06:42.966Z,50.50
2022-12-03T23:09:18.563Z,57.38
2022-12-03T23:11:48.086Z,44.90
2022-12-03T23:14:24.477Z,47.28
2022-12-03T23:16:54.255Z,50.88
2022-12-03T23:19:21.151Z,49.38
2022-12-03T23:22:03.047Z,43.33
2022-12-03T23:24:36.994Z,56.43
2022-12-03T23:27:53.310Z,48.17
2022-12-03T23:30:21.157Z,48.70
2022-12-03T23:32:54.390Z,47.33
2022-12-03T23:40:50.224Z,53.53
2022-12-03T23:43:46.167Z,53.75
2022-12-03T23:46:22.583Z,51.70
2022-12-03T23:48:58.468Z,46.83
2022-12-03T23:51:34.170Z,55.93
2022-12-03T23:54:51.369Z,52.45
2022-12-03T23:57:18.076Z,58.50
2022-12-03T23:59:47.719Z,59.85
